createdAt,value
2019-05-18T00:01:13.923Z,18.07
2019-05-18T00:03:46.035Z,18.48
2019-05-18T00:06:16.992Z,16.87
2019-05-18T00:08:53.984Z,18.50
2019-05-18T00:11:24.503Z,18.10
2019-05-18T00:13:56.595Z,18.85
2019-05-18T00:16:27.066Z,19.17
2019-05-18T00:18:57.607Z,19.00
2019-05-18T00:21:28.047Z,18.12
2019-05-18T00:23:58.505Z,18.42
2019-05-18T00:26:29.008Z,17.55
2019-05-18T00:28:59.639Z,18.55
2019-05-18T00:31:30.240Z,18.70
2019-05-18T00:34:01.060Z,19.37
2019-05-18T00:36:31.555Z,21.15
2019-05-18T00:39:02.106Z,18.82
2019-05-18T00:41:33.094Z,18.90
2019-05-18T00:44:03.871Z,18.52
2019-05-18T00:46:34.352Z,20.08
2019-05-18T00:49:04.901Z,20.30
2019-05-18T00:51:35.508Z,19.48
2019-05-18T00:54:06.398Z,19.12
2019-05-18T00:56:38.263Z,20.10
2019-05-18T00:59:08.777Z,20.02
2019-05-18T01:01:39.518Z,19.50
2019-05-18T01:04:10.136Z,19.87
2019-05-18T01:06:41.383Z,20.02
2019-05-18T01:09:15.341Z,20.17
2019-05-18T01:11:45.768Z,21.02
2019-05-18T01:14:17.355Z,20.77
2019-05-18T01:16:48.055Z,21.23
2019-05-18T01:19:18.437Z,20.77
2019-05-18T01:21:48.883Z,21.75
2019-05-18T01:24:19.836Z,22.25
2019-05-18T01:26:50.292Z,21.02
2019-05-18T01:29:21.023Z,22.02
2019-05-18T01:31:51.559Z,21.45
2019-05-18T01:34:22.176Z,21.17
2019-05-18T01:39:30.485Z,21.05
2019-05-18T01:42:00.936Z,21.65
2019-05-18T01:44:31.492Z,22.75
2019-05-18T01:47:02.080Z,22.85
2019-05-18T01:49:32.596Z,21.93
2019-05-18T01:52:03.109Z,23.73
2019-05-18T01:54:33.772Z,24.20
2019-05-18T01:57:04.365Z,22.20
2019-05-18T01:59:34.895Z,22.77
2019-05-18T02:02:05.451Z,21.90
2019-05-18T02:04:37.748Z,21.50
2019-05-18T02:07:08.699Z,22.37
2019-05-18T02:09:46.192Z,22.95
2019-05-18T02:12:17.371Z,23.00
2019-05-18T02:14:54.515Z,21.60
2019-05-18T02:17:25.036Z,22.73
2019-05-18T02:19:55.596Z,23.62
2019-05-18T02:22:26.141Z,22.52
2019-05-18T02:24:56.715Z,24.10
2019-05-18T02:27:27.523Z,23.55
2019-05-18T02:29:57.994Z,24.50
2019-05-18T02:32:28.949Z,23.20
2019-05-18T02:34:59.477Z,22.55
2019-05-18T02:37:30.057Z,22.73
2019-05-18T02:40:00.527Z,22.87
2019-05-18T02:42:31.094Z,23.65
2019-05-18T02:45:01.649Z,23.05
2019-05-18T02:47:32.159Z,22.50
2019-05-18T02:50:02.710Z,24.27
2019-05-18T02:52:33.436Z,21.62
2019-05-18T02:55:04.413Z,22.70
2019-05-18T02:57:35.035Z,23.45
2019-05-18T03:00:08.004Z,22.05
2019-05-18T03:02:38.495Z,21.42
2019-05-18T03:05:09.356Z,21.62
2019-05-18T03:07:39.922Z,22.15
2019-05-18T03:10:10.632Z,22.42
2019-05-18T03:15:25.070Z,22.15
2019-05-18T03:17:55.669Z,21.82
2019-05-18T03:20:26.667Z,22.48
2019-05-18T03:22:57.274Z,23.52
2019-05-18T03:25:27.927Z,24.00
2019-05-18T03:27:58.312Z,22.35
2019-05-18T03:30:28.980Z,23.12
2019-05-18T03:32:59.538Z,22.58
2019-05-18T03:35:30.179Z,22.05
2019-05-18T03:38:00.769Z,23.55
2019-05-18T03:40:31.295Z,22.95
2019-05-18T03:43:01.707Z,22.70
2019-05-18T03:45:32.262Z,23.83
2019-05-18T03:48:02.885Z,24.32
2019-05-18T03:50:34.253Z,22.82
2019-05-18T03:53:04.734Z,24.05
2019-05-18T03:55:36.192Z,26.25
2019-05-18T03:58:06.652Z,22.70
2019-05-18T04:00:37.200Z,24.52
2019-05-18T04:03:07.871Z,23.45
2019-05-18T04:05:38.512Z,24.35
2019-05-18T04:08:09.107Z,24.87
2019-05-18T04:10:39.729Z,24.70
2019-05-18T04:13:11.903Z,24.30
2019-05-18T04:15:47.221Z,23.27
2019-05-18T04:18:17.663Z,23.55
2019-05-18T04:20:48.335Z,24.47
2019-05-18T04:23:20.681Z,25.25
2019-05-18T04:25:51.275Z,23.83
2019-05-18T04:28:21.691Z,25.77
2019-05-18T04:30:55.754Z,24.10
2019-05-18T04:33:26.385Z,25.48
2019-05-18T04:35:58.153Z,24.60
2019-05-18T04:38:28.682Z,24.92
2019-05-18T04:40:59.238Z,24.55
2019-05-18T04:43:29.702Z,24.35
2019-05-18T04:46:00.259Z,24.35
2019-05-18T04:48:30.779Z,24.77
2019-05-18T04:51:08.527Z,24.23
2019-05-18T04:53:40.965Z,23.73
2019-05-18T04:56:11.515Z,25.82
2019-05-18T04:58:42.060Z,24.32
2019-05-18T05:01:12.549Z,24.87
2019-05-18T05:03:43.156Z,25.08
2019-05-18T05:06:14.142Z,26.42
2019-05-18T05:08:44.639Z,24.70
2019-05-18T05:11:15.299Z,24.92
2019-05-18T05:13:47.368Z,26.10
2019-05-18T05:16:17.917Z,25.55
2019-05-18T05:18:49.327Z,24.52
2019-05-18T05:21:19.848Z,24.65
2019-05-18T05:23:50.335Z,23.98
2019-05-18T05:26:20.837Z,24.95
2019-05-18T05:29:03.348Z,23.87
2019-05-18T05:31:34.164Z,25.32
2019-05-18T05:34:05.375Z,23.67
2019-05-18T05:36:35.739Z,26.15
2019-05-18T05:39:07.010Z,25.40
2019-05-18T05:41:37.456Z,25.97
2019-05-18T05:44:07.993Z,25.62
2019-05-18T05:46:38.580Z,26.02
2019-05-18T05:49:09.342Z,24.40
2019-05-18T05:51:39.819Z,24.72
2019-05-18T05:54:11.115Z,25.40
2019-05-18T05:56:42.352Z,27.20
2019-05-18T05:59:12.916Z,25.60
2019-05-18T06:01:43.455Z,26.90
2019-05-18T06:04:14.848Z,26.65
2019-05-18T06:06:45.276Z,26.70
2019-05-18T06:09:15.839Z,26.48
2019-05-18T06:11:46.463Z,27.62
2019-05-18T06:17:03.912Z,26.42
2019-05-18T06:19:40.933Z,27.37
2019-05-18T06:22:11.440Z,26.57
2019-05-18T06:24:41.833Z,26.62
2019-05-18T06:27:12.567Z,27.22
2019-05-18T06:29:43.029Z,26.60
2019-05-18T06:32:14.584Z,27.13
2019-05-18T06:34:51.395Z,27.05
2019-05-18T06:37:21.825Z,27.82
2019-05-18T06:39:52.385Z,28.62
2019-05-18T06:42:22.832Z,27.20
2019-05-18T06:44:53.487Z,25.82
2019-05-18T06:47:24.105Z,26.82
2019-05-18T06:50:00.995Z,28.00
2019-05-18T06:52:31.463Z,26.82
2019-05-18T06:55:01.995Z,27.60
2019-05-18T06:57:33.651Z,26.37
2019-05-18T07:00:05.005Z,27.32
2019-05-18T07:02:36.704Z,26.48
2019-05-18T07:05:07.280Z,27.70
2019-05-18T07:07:38.303Z,27.20
2019-05-18T07:10:09.428Z,27.73
2019-05-18T07:12:39.949Z,26.60
2019-05-18T07:15:11.455Z,28.47
2019-05-18T07:17:43.248Z,26.25
2019-05-18T07:20:13.800Z,26.70
2019-05-18T07:22:51.031Z,26.35
2019-05-18T07:25:23.479Z,27.13
2019-05-18T07:27:55.067Z,28.15
2019-05-18T07:30:25.712Z,27.07
2019-05-18T07:32:56.259Z,26.85
2019-05-18T07:35:26.828Z,28.40
2019-05-18T07:37:57.363Z,29.07
2019-05-18T07:40:31.570Z,28.30
2019-05-18T07:43:02.161Z,28.67
2019-05-18T07:45:32.715Z,29.72
2019-05-18T07:48:03.258Z,28.75
2019-05-18T07:50:34.173Z,27.95
2019-05-18T07:53:05.149Z,27.98
2019-05-18T07:55:35.642Z,28.02
2019-05-18T07:58:06.430Z,28.05
2019-05-18T08:00:37.024Z,29.20
2019-05-18T08:03:07.597Z,28.85
2019-05-18T08:05:38.032Z,27.22
2019-05-18T08:08:08.505Z,26.35
2019-05-18T08:10:39.480Z,26.52
2019-05-18T08:13:10.099Z,26.85
2019-05-18T08:15:40.787Z,28.32
2019-05-18T08:18:12.885Z,26.68
2019-05-18T08:20:43.456Z,26.17
2019-05-18T08:23:13.999Z,28.27
2019-05-18T08:25:44.455Z,28.00
2019-05-18T08:28:15.247Z,27.13
2019-05-18T08:30:46.057Z,27.27
2019-05-18T08:33:16.597Z,27.10
2019-05-18T08:35:47.076Z,27.67
2019-05-18T08:38:17.529Z,27.27
2019-05-18T08:40:47.978Z,26.35
2019-05-18T08:43:19.008Z,27.50
2019-05-18T08:45:50.251Z,27.60
2019-05-18T08:48:22.308Z,28.83
2019-05-18T08:50:52.735Z,27.20
2019-05-18T08:53:23.234Z,27.90
2019-05-18T08:55:53.777Z,28.52
2019-05-18T08:58:24.242Z,28.57
2019-05-18T09:00:54.740Z,27.93
2019-05-18T09:03:25.263Z,27.32
2019-05-18T09:05:55.818Z,27.73
2019-05-18T09:08:26.220Z,27.60
2019-05-18T09:10:56.684Z,26.02
2019-05-18T09:13:27.276Z,28.12
2019-05-18T09:15:57.732Z,27.73
2019-05-18T09:18:29.139Z,27.87
2019-05-18T09:20:59.711Z,28.95
2019-05-18T09:23:30.233Z,27.25
2019-05-18T09:26:00.920Z,30.12
2019-05-18T09:28:31.284Z,28.42
2019-05-18T09:31:01.786Z,29.07
2019-05-18T09:36:14.418Z,27.52
2019-05-18T09:38:45.085Z,26.70
2019-05-18T09:41:15.880Z,29.42
2019-05-18T09:43:46.460Z,28.05
2019-05-18T09:46:16.953Z,26.52
2019-05-18T09:48:47.810Z,27.02
2019-05-18T09:51:18.308Z,24.60
2019-05-18T09:53:51.607Z,27.00
2019-05-18T09:56:21.335Z,27.00
2019-05-18T09:58:51.778Z,25.30
2019-05-18T10:01:22.332Z,26.60
2019-05-18T10:03:52.777Z,25.70
2019-05-18T10:06:23.518Z,24.63
2019-05-18T10:08:55.090Z,26.07
2019-05-18T10:11:25.560Z,24.52
2019-05-18T10:13:56.017Z,25.10
2019-05-18T10:16:26.497Z,24.90
2019-05-18T10:18:57.693Z,25.97
2019-05-18T10:21:32.388Z,25.30
2019-05-18T10:24:03.293Z,23.27
2019-05-18T10:26:34.491Z,19.10
2019-05-18T10:29:05.116Z,21.30
2019-05-18T10:31:35.509Z,22.02
2019-05-18T10:34:06.002Z,21.62
2019-05-18T10:36:43.173Z,21.00
2019-05-18T10:39:13.592Z,22.60
2019-05-18T10:41:44.067Z,21.55
2019-05-18T10:44:14.569Z,22.15
2019-05-18T10:46:45.207Z,23.73
2019-05-18T10:49:16.193Z,23.80
2019-05-18T10:51:46.671Z,22.40
2019-05-18T10:54:17.193Z,23.20
2019-05-18T10:56:47.557Z,22.65
2019-05-18T10:59:24.803Z,23.38
2019-05-18T11:01:55.320Z,24.15
2019-05-18T11:04:25.861Z,24.52
2019-05-18T11:06:56.309Z,23.05
2019-05-18T11:09:26.824Z,23.40
2019-05-18T11:11:57.299Z,21.62
2019-05-18T11:14:27.718Z,23.20
2019-05-18T11:16:58.324Z,20.27
2019-05-18T11:19:29.567Z,20.32
2019-05-18T11:22:07.047Z,21.48
2019-05-18T11:24:37.639Z,21.45
2019-05-18T11:27:08.488Z,23.70
2019-05-18T11:29:38.942Z,23.38
2019-05-18T11:32:09.484Z,24.35
2019-05-18T11:34:40.098Z,24.15
2019-05-18T11:37:11.866Z,23.62
2019-05-18T11:39:42.516Z,23.75
2019-05-18T11:42:13.096Z,24.90
2019-05-18T11:44:43.572Z,24.15
2019-05-18T11:47:14.580Z,23.30
2019-05-18T11:49:45.135Z,23.55
2019-05-18T11:52:15.752Z,22.65
2019-05-18T11:54:46.185Z,22.27
2019-05-18T11:57:16.790Z,24.47
2019-05-18T11:59:47.498Z,22.87
2019-05-18T12:02:18.488Z,23.75
2019-05-18T12:04:49.047Z,21.52
2019-05-18T12:07:19.577Z,22.62
2019-05-18T12:09:50.530Z,23.22
2019-05-18T12:12:21.106Z,22.30
2019-05-18T12:14:51.931Z,22.15
2019-05-18T12:17:22.321Z,21.17
2019-05-18T12:19:54.671Z,29.37
2019-05-18T12:22:25.232Z,31.77
2019-05-18T12:24:55.757Z,31.97
2019-05-18T12:27:26.320Z,32.93
2019-05-18T12:30:03.240Z,32.15
2019-05-18T12:32:34.636Z,32.88
2019-05-18T12:37:41.689Z,33.70
2019-05-18T12:40:21.061Z,33.63
2019-05-18T12:42:51.600Z,34.60
2019-05-18T12:45:22.428Z,30.90
2019-05-18T12:47:52.916Z,30.95
2019-05-18T12:50:24.225Z,30.00
2019-05-18T12:52:55.182Z,34.03
2019-05-18T12:55:25.831Z,34.08
2019-05-18T12:57:56.677Z,35.80
2019-05-18T13:00:28.304Z,32.90
2019-05-18T13:02:59.355Z,33.05
2019-05-18T13:05:30.177Z,32.73
2019-05-18T13:08:00.603Z,34.35
2019-05-18T13:10:31.284Z,32.90
2019-05-18T13:13:01.889Z,32.20
2019-05-18T13:15:32.828Z,32.35
2019-05-18T13:18:03.387Z,34.63
2019-05-18T13:20:35.631Z,33.42
2019-05-18T13:23:13.185Z,33.60
2019-05-18T13:25:43.833Z,35.43
2019-05-18T13:28:14.362Z,34.33
2019-05-18T13:30:44.961Z,32.90
2019-05-18T13:33:15.461Z,35.28
2019-05-18T13:35:45.979Z,35.70
2019-05-18T13:38:16.601Z,34.58
2019-05-18T13:40:47.342Z,32.65
2019-05-18T13:43:19.065Z,33.95
2019-05-18T13:45:51.547Z,31.90
2019-05-18T13:48:22.225Z,33.02
2019-05-18T13:50:52.859Z,36.48
2019-05-18T13:53:23.522Z,36.93
2019-05-18T13:55:53.996Z,37.53
2019-05-18T13:58:25.624Z,38.73
2019-05-18T14:00:56.827Z,38.75
2019-05-18T14:03:28.779Z,38.80
2019-05-18T14:05:59.344Z,38.30
2019-05-18T14:08:29.835Z,39.27
2019-05-18T14:11:01.035Z,39.13
2019-05-18T14:13:31.521Z,39.98
2019-05-18T14:16:03.026Z,42.75
2019-05-18T14:18:33.680Z,43.02
2019-05-18T14:21:06.065Z,42.95
2019-05-18T14:23:43.718Z,43.65
2019-05-18T14:26:14.212Z,45.67
2019-05-18T14:31:21.125Z,43.90
2019-05-18T14:33:51.608Z,44.18
2019-05-18T14:36:22.348Z,45.65
2019-05-18T14:38:56.824Z,43.75
2019-05-18T14:41:25.481Z,45.67
2019-05-18T14:43:55.947Z,46.28
2019-05-18T14:46:27.375Z,45.60
2019-05-18T14:48:57.859Z,45.25
2019-05-18T14:51:28.521Z,44.88
2019-05-18T14:53:59.477Z,42.67
2019-05-18T14:56:30.115Z,44.50
2019-05-18T14:59:00.656Z,44.00
2019-05-18T15:01:32.294Z,44.67
2019-05-18T15:04:02.806Z,43.42
2019-05-18T15:06:33.300Z,43.40
2019-05-18T15:09:05.159Z,44.08
2019-05-18T15:11:35.792Z,45.03
2019-05-18T15:14:06.487Z,43.78
2019-05-18T15:16:40.685Z,43.13
2019-05-18T15:19:11.137Z,44.95
2019-05-18T15:21:43.317Z,43.15
2019-05-18T15:24:13.935Z,42.08
2019-05-18T15:26:44.423Z,42.85
2019-05-18T15:29:14.847Z,43.52
2019-05-18T15:34:21.400Z,45.60
2019-05-18T15:36:51.999Z,47.35
2019-05-18T15:39:22.568Z,45.92
2019-05-18T15:41:54.502Z,44.67
2019-05-18T15:44:25.012Z,44.05
2019-05-18T15:46:55.472Z,44.15
2019-05-18T15:49:26.026Z,42.75
2019-05-18T15:51:56.607Z,44.65
2019-05-18T15:54:27.248Z,43.90
2019-05-18T15:56:57.894Z,44.38
2019-05-18T15:59:28.397Z,46.30
2019-05-18T16:01:59.625Z,43.50
2019-05-18T16:04:30.141Z,42.23
2019-05-18T16:07:00.719Z,42.67
2019-05-18T16:09:31.204Z,41.85
2019-05-18T16:12:02.141Z,42.30
2019-05-18T16:14:32.637Z,42.75
2019-05-18T16:17:03.220Z,42.33
2019-05-18T16:19:33.795Z,40.98
2019-05-18T16:22:11.606Z,41.30
2019-05-18T16:24:48.975Z,43.42
2019-05-18T16:27:19.543Z,41.83
2019-05-18T16:29:51.157Z,42.55
2019-05-18T16:32:21.739Z,40.48
2019-05-18T16:34:52.419Z,39.48
2019-05-18T16:37:22.871Z,40.33
2019-05-18T16:39:53.501Z,41.50
2019-05-18T16:42:24.173Z,40.63
2019-05-18T16:44:54.880Z,43.52
2019-05-18T16:47:25.464Z,42.55
2019-05-18T16:49:56.287Z,43.28
2019-05-18T16:52:26.864Z,43.15
2019-05-18T16:54:57.328Z,44.88
2019-05-18T16:57:27.957Z,43.50
2019-05-18T16:59:58.575Z,43.58
2019-05-18T17:02:31.578Z,43.92
2019-05-18T17:05:01.252Z,43.48
2019-05-18T17:07:32.076Z,43.58
2019-05-18T17:10:02.700Z,43.78
2019-05-18T17:12:33.212Z,42.38
2019-05-18T17:15:03.940Z,43.13
2019-05-18T17:17:35.707Z,43.55
2019-05-18T17:20:06.882Z,42.67
2019-05-18T17:22:37.621Z,41.50
2019-05-18T17:25:15.133Z,41.80
2019-05-18T17:27:45.664Z,41.48
2019-05-18T17:30:16.501Z,43.10
2019-05-18T17:32:47.072Z,43.00
2019-05-18T17:35:17.703Z,42.88
2019-05-18T17:37:48.289Z,42.75
2019-05-18T17:40:18.900Z,42.30
2019-05-18T17:42:49.467Z,45.48
2019-05-18T17:45:20.092Z,40.90
2019-05-18T17:47:50.580Z,41.95
2019-05-18T17:50:21.588Z,43.60
2019-05-18T17:52:52.208Z,42.05
2019-05-18T17:55:22.820Z,40.28
2019-05-18T17:57:53.370Z,42.03
2019-05-18T18:00:23.909Z,45.25
2019-05-18T18:02:54.517Z,44.58
2019-05-18T18:05:25.187Z,43.40
2019-05-18T18:07:55.780Z,44.88
2019-05-18T18:10:26.494Z,43.73
2019-05-18T18:12:59.014Z,45.38
2019-05-18T18:15:29.568Z,44.05
2019-05-18T18:18:00.090Z,45.12
2019-05-18T18:20:38.307Z,42.40
2019-05-18T18:23:09.489Z,44.23
2019-05-18T18:25:47.013Z,39.80
2019-05-18T18:28:18.474Z,43.35
2019-05-18T18:30:49.126Z,39.15
2019-05-18T18:33:19.569Z,39.67
2019-05-18T18:35:50.100Z,38.78
2019-05-18T18:38:20.648Z,45.73
2019-05-18T18:40:51.017Z,44.70
2019-05-18T18:43:24.632Z,44.73
2019-05-18T18:45:59.067Z,42.98
2019-05-18T18:48:38.724Z,43.63
2019-05-18T18:51:09.288Z,42.98
2019-05-18T18:53:40.000Z,45.58
2019-05-18T18:56:10.768Z,44.80
2019-05-18T18:58:42.408Z,44.00
2019-05-18T19:01:13.084Z,44.38
2019-05-18T19:03:43.608Z,43.28
2019-05-18T19:06:14.229Z,45.45
2019-05-18T19:08:44.952Z,44.23
2019-05-18T19:11:21.465Z,44.77
2019-05-18T19:13:53.173Z,44.30
2019-05-18T19:16:23.836Z,44.70
2019-05-18T19:18:54.573Z,45.40
2019-05-18T19:21:25.077Z,43.78
2019-05-18T19:23:59.235Z,44.40
2019-05-18T19:26:29.927Z,43.73
2019-05-18T19:29:01.049Z,43.17
2019-05-18T19:31:31.468Z,39.63
2019-05-18T19:34:01.925Z,43.78
2019-05-18T19:36:32.663Z,43.80
2019-05-18T19:39:04.079Z,43.38
2019-05-18T19:44:10.761Z,42.98
2019-05-18T19:46:41.148Z,43.95
2019-05-18T19:49:11.635Z,43.55
2019-05-18T19:51:42.101Z,45.78
2019-05-18T19:54:12.627Z,42.78
2019-05-18T19:56:44.256Z,45.25
2019-05-18T19:59:15.415Z,44.63
2019-05-18T20:01:47.909Z,44.05
2019-05-18T20:04:18.757Z,45.85
2019-05-18T20:06:49.245Z,42.67
2019-05-18T20:09:20.076Z,43.85
2019-05-18T20:11:50.612Z,43.98
2019-05-18T20:14:21.300Z,44.98
2019-05-18T20:16:51.814Z,45.88
2019-05-18T20:19:36.750Z,47.10
2019-05-18T20:21:55.496Z,45.48
2019-05-18T20:24:27.792Z,45.95
2019-05-18T20:26:58.394Z,45.80
2019-05-18T20:29:29.123Z,46.42
2019-05-18T20:31:59.630Z,46.25
2019-05-18T20:34:30.165Z,44.45
2019-05-18T20:37:00.646Z,46.73
2019-05-18T20:39:31.458Z,45.80
2019-05-18T20:42:02.136Z,46.90
2019-05-18T20:44:32.902Z,45.58
2019-05-18T20:47:03.469Z,45.73
2019-05-18T20:49:34.268Z,46.25
2019-05-18T20:52:05.112Z,45.15
2019-05-18T20:54:36.373Z,46.75
2019-05-18T20:57:07.231Z,48.50
2019-05-18T20:59:37.884Z,48.85
2019-05-18T21:02:08.576Z,47.53
2019-05-18T21:04:39.209Z,48.98
2019-05-18T21:07:11.729Z,47.53
2019-05-18T21:09:42.406Z,47.62
2019-05-18T21:12:12.968Z,48.40
2019-05-18T21:14:43.458Z,49.67
2019-05-18T21:17:19.734Z,48.52
2019-05-18T21:19:50.297Z,50.17
2019-05-18T21:22:22.861Z,48.45
2019-05-18T21:27:36.128Z,48.68
2019-05-18T21:30:06.859Z,50.73
2019-05-18T21:35:13.900Z,51.00
2019-05-18T21:37:44.344Z,52.30
2019-05-18T21:40:17.007Z,49.83
2019-05-18T21:42:47.411Z,50.45
2019-05-18T21:45:18.851Z,50.50
2019-05-18T21:47:49.480Z,51.50
2019-05-18T21:50:25.985Z,54.45
2019-05-18T21:52:56.561Z,51.98
2019-05-18T21:55:28.924Z,53.90
2019-05-18T21:57:59.463Z,55.05
2019-05-18T22:00:30.597Z,54.38
2019-05-18T22:03:02.828Z,54.42
2019-05-18T22:05:33.441Z,55.05
2019-05-18T22:08:04.068Z,54.53
2019-05-18T22:10:34.644Z,55.55
2019-05-18T22:13:05.193Z,55.03
2019-05-18T22:15:35.721Z,54.70
2019-05-18T22:18:06.331Z,55.30
2019-05-18T22:20:43.235Z,55.75
2019-05-18T22:23:09.699Z,52.58
2019-05-18T22:25:44.850Z,53.95
2019-05-18T22:28:19.313Z,53.40
2019-05-18T22:33:32.504Z,53.13
2019-05-18T22:36:02.964Z,55.15
2019-05-18T22:38:33.639Z,50.08
2019-05-18T22:41:05.872Z,48.38
2019-05-18T22:43:36.378Z,46.83
2019-05-18T22:46:06.975Z,49.15
2019-05-18T22:48:41.361Z,49.00
2019-05-18T22:51:09.881Z,48.20
2019-05-18T22:53:40.482Z,48.20
2019-05-18T22:56:11.024Z,47.35
2019-05-18T22:58:41.560Z,48.02
2019-05-18T23:01:12.421Z,49.73
2019-05-18T23:03:45.596Z,48.00
2019-05-18T23:06:15.984Z,46.98
2019-05-18T23:08:46.573Z,47.13
2019-05-18T23:11:17.163Z,47.43
2019-05-18T23:13:47.640Z,47.35
2019-05-18T23:16:18.217Z,47.20
2019-05-18T23:18:56.920Z,48.58
2019-05-18T23:21:22.149Z,47.55
2019-05-18T23:23:52.890Z,47.50
2019-05-18T23:26:23.362Z,47.98
2019-05-18T23:28:53.792Z,47.10
2019-05-18T23:31:28.813Z,49.18
2019-05-18T23:33:59.448Z,54.60
2019-05-18T23:36:30.122Z,52.10
2019-05-18T23:39:02.499Z,52.20
2019-05-18T23:41:34.156Z,53.13
2019-05-18T23:44:04.872Z,52.03
2019-05-18T23:46:35.393Z,52.40
2019-05-18T23:49:10.891Z,52.58
2019-05-18T23:51:38.237Z,50.28
2019-05-18T23:54:08.760Z,51.95
2019-05-18T23:56:39.306Z,50.80
2019-05-18T23:59:09.928Z,50.90
